createdAt,value
2018-02-23T00:01:57.419Z,9.27
2018-02-23T00:04:26.743Z,7.53
2018-02-23T00:06:56.017Z,11.20
2018-02-23T00:09:25.299Z,11.23
2018-02-23T00:11:56.055Z,10.03
2018-02-23T00:14:25.333Z,6.47
2018-02-23T00:16:56.243Z,8.23
2018-02-23T00:19:25.523Z,11.33
2018-02-23T00:21:54.813Z,8.47
2018-02-23T00:24:24.233Z,10.67
2018-02-23T00:26:53.565Z,5.80
2018-02-23T00:29:23.017Z,13.07
2018-02-23T00:31:52.269Z,8.40
2018-02-23T00:34:22.229Z,6.07
2018-02-23T00:36:52.208Z,10.07
2018-02-23T00:39:21.502Z,7.87
2018-02-23T00:41:50.768Z,11.20
2018-02-23T00:44:20.800Z,7.53
2018-02-23T00:46:50.072Z,6.47
2018-02-23T00:49:19.319Z,13.57
2018-02-23T00:51:48.580Z,7.23
2018-02-23T00:54:17.826Z,3.90
2018-02-23T00:56:47.074Z,6.10
2018-02-23T00:59:16.345Z,7.67
2018-02-23T01:01:45.606Z,11.83
2018-02-23T01:04:15.047Z,12.53
2018-02-23T01:06:44.303Z,8.50
2018-02-23T01:09:14.311Z,8.77
2018-02-23T01:11:44.341Z,4.80
2018-02-23T01:14:13.611Z,4.73
2018-02-23T01:16:42.854Z,11.47
2018-02-23T01:19:12.743Z,10.00
2018-02-23T01:21:42.899Z,7.37
2018-02-23T01:24:12.174Z,6.47
2018-02-23T01:26:41.469Z,5.77
2018-02-23T01:29:11.578Z,7.77
2018-02-23T01:31:40.885Z,8.23
2018-02-23T01:34:10.143Z,7.20
2018-02-23T01:36:39.388Z,6.87
2018-02-23T01:39:08.657Z,13.80
2018-02-23T01:41:37.937Z,4.40
2018-02-23T01:44:07.211Z,6.33
2018-02-23T01:46:36.481Z,8.73
2018-02-23T01:49:05.892Z,6.37
2018-02-23T01:51:35.902Z,9.07
2018-02-23T01:54:05.945Z,10.60
2018-02-23T01:56:35.232Z,8.70
2018-02-23T01:59:04.498Z,4.43
2018-02-23T02:01:34.565Z,5.00
2018-02-23T02:04:03.941Z,6.97
2018-02-23T02:06:33.194Z,7.00
2018-02-23T02:09:03.109Z,7.40
2018-02-23T02:11:32.361Z,11.13
2018-02-23T02:14:02.414Z,7.67
2018-02-23T02:16:31.703Z,7.90
2018-02-23T02:19:00.973Z,10.90
2018-02-23T02:21:30.322Z,8.73
2018-02-23T02:23:59.570Z,10.20
2018-02-23T02:26:28.838Z,11.50
2018-02-23T02:28:58.271Z,7.93
2018-02-23T02:31:27.506Z,7.70
2018-02-23T02:33:56.793Z,6.53
2018-02-23T02:36:26.041Z,6.30
2018-02-23T02:38:56.042Z,6.60
2018-02-23T02:41:25.320Z,4.93
2018-02-23T02:43:54.611Z,11.77
2018-02-23T02:46:23.846Z,7.63
2018-02-23T02:48:53.299Z,4.83
2018-02-23T02:51:22.580Z,10.23
2018-02-23T02:53:51.942Z,9.90
2018-02-23T02:56:21.995Z,14.63
2018-02-23T02:58:51.323Z,7.60
2018-02-23T03:01:20.594Z,3.50
2018-02-23T03:03:49.934Z,9.20
2018-02-23T03:06:19.229Z,10.00
2018-02-23T03:08:48.528Z,10.30
2018-02-23T03:11:17.770Z,7.63
2018-02-23T03:13:47.028Z,7.53
2018-02-23T03:16:16.405Z,5.20
2018-02-23T03:18:45.708Z,6.30
2018-02-23T03:21:14.981Z,6.43
2018-02-23T03:23:44.228Z,8.80
2018-02-23T03:26:13.514Z,7.07
2018-02-23T03:28:42.776Z,8.20
2018-02-23T03:31:12.809Z,5.47
2018-02-23T03:33:42.062Z,13.50
2018-02-23T03:36:11.348Z,11.43
2018-02-23T03:38:40.637Z,8.00
2018-02-23T03:41:09.904Z,12.67
2018-02-23T03:43:39.173Z,7.30
2018-02-23T03:46:09.310Z,15.40
2018-02-23T03:48:38.714Z,10.23
2018-02-23T03:51:07.999Z,6.17
2018-02-23T03:53:37.264Z,4.83
2018-02-23T03:56:06.512Z,3.87
2018-02-23T03:58:36.550Z,11.13
2018-02-23T04:01:05.803Z,3.23
2018-02-23T04:03:35.078Z,6.67
2018-02-23T04:06:04.325Z,11.00
2018-02-23T04:08:34.369Z,11.23
2018-02-23T04:11:03.630Z,5.47
2018-02-23T04:13:32.872Z,9.00
2018-02-23T04:16:02.138Z,8.60
2018-02-23T04:18:31.381Z,7.60
2018-02-23T04:21:01.413Z,12.90
2018-02-23T04:23:30.698Z,8.80
2018-02-23T04:25:59.982Z,6.53
2018-02-23T04:28:29.989Z,9.77
2018-02-23T04:30:59.292Z,7.97
2018-02-23T04:33:28.781Z,5.83
2018-02-23T04:35:58.113Z,5.63
2018-02-23T04:38:27.430Z,3.23
2018-02-23T04:40:56.630Z,9.10
2018-02-23T04:43:25.895Z,5.97
2018-02-23T04:45:55.138Z,11.13
2018-02-23T04:48:24.394Z,10.53
2018-02-23T04:50:54.426Z,2.90
2018-02-23T04:53:24.454Z,11.40
2018-02-23T04:55:53.746Z,2.70
2018-02-23T04:58:23.005Z,3.07
2018-02-23T05:00:52.254Z,4.17
2018-02-23T05:03:22.282Z,10.10
2018-02-23T05:05:51.535Z,6.57
2018-02-23T05:08:20.790Z,5.53
2018-02-23T05:10:50.077Z,7.10
2018-02-23T05:13:20.073Z,7.80
2018-02-23T05:15:49.340Z,7.50
2018-02-23T05:18:18.602Z,8.77
2018-02-23T05:20:47.862Z,4.50
2018-02-23T05:23:17.133Z,6.73
2018-02-23T05:25:46.379Z,4.80
2018-02-23T05:28:15.648Z,4.13
2018-02-23T05:30:44.901Z,3.63
2018-02-23T05:33:14.153Z,4.57
2018-02-23T05:35:43.428Z,10.00
2018-02-23T05:38:12.682Z,5.27
2018-02-23T05:40:41.950Z,4.43
2018-02-23T05:43:11.222Z,4.63
2018-02-23T05:45:40.489Z,3.40
2018-02-23T05:48:10.600Z,5.40
2018-02-23T05:50:39.964Z,4.80
2018-02-23T05:53:09.217Z,12.87
2018-02-23T05:55:39.249Z,6.00
2018-02-23T05:58:08.731Z,9.47
2018-02-23T06:00:38.121Z,7.33
2018-02-23T06:03:08.157Z,7.07
2018-02-23T06:05:37.432Z,6.40
2018-02-23T06:08:06.742Z,10.67
2018-02-23T06:10:36.053Z,8.07
2018-02-23T06:13:05.332Z,8.17
2018-02-23T06:15:40.222Z,11.80
2018-02-23T06:18:09.495Z,8.73
2018-02-23T06:20:38.729Z,6.10
2018-02-23T06:23:08.022Z,10.20
2018-02-23T06:25:37.290Z,6.47
2018-02-23T06:28:06.558Z,14.77
2018-02-23T06:30:35.808Z,7.37
2018-02-23T06:33:05.042Z,8.80
2018-02-23T06:35:34.315Z,10.17
2018-02-23T06:38:03.568Z,13.53
2018-02-23T06:40:32.845Z,9.20
2018-02-23T06:43:02.087Z,5.10
2018-02-23T06:45:31.335Z,9.97
2018-02-23T06:48:00.608Z,9.30
2018-02-23T06:50:30.635Z,13.07
2018-02-23T06:52:59.914Z,15.77
2018-02-23T06:55:29.182Z,11.60
2018-02-23T06:57:58.450Z,11.63
2018-02-23T07:00:27.687Z,7.93
2018-02-23T07:02:56.967Z,10.77
2018-02-23T07:05:26.448Z,9.90
2018-02-23T07:07:55.713Z,6.47
2018-02-23T07:10:24.961Z,8.80
2018-02-23T07:12:54.205Z,7.17
2018-02-23T07:15:23.470Z,12.93
2018-02-23T07:17:52.745Z,10.33
2018-02-23T07:20:22.030Z,7.77
2018-02-23T07:22:51.289Z,8.50
2018-02-23T07:25:20.954Z,8.33
2018-02-23T07:27:50.970Z,3.93
2018-02-23T07:30:20.229Z,10.00
2018-02-23T07:32:49.542Z,9.70
2018-02-23T07:35:18.806Z,5.27
2018-02-23T07:37:48.075Z,10.93
2018-02-23T07:40:18.113Z,6.70
2018-02-23T07:42:47.366Z,4.93
2018-02-23T07:45:16.638Z,6.80
2018-02-23T07:47:45.878Z,11.17
2018-02-23T07:50:15.140Z,11.27
2018-02-23T07:52:44.385Z,12.63
2018-02-23T07:55:13.649Z,12.33
2018-02-23T07:57:42.900Z,9.70
2018-02-23T08:00:12.914Z,16.23
2018-02-23T08:02:42.180Z,12.60
2018-02-23T08:05:11.435Z,13.80
2018-02-23T08:07:40.699Z,14.77
2018-02-23T08:10:09.940Z,15.10
2018-02-23T08:12:39.214Z,13.27
2018-02-23T08:15:08.468Z,15.70
2018-02-23T08:17:37.740Z,23.40
2018-02-23T08:20:07.010Z,15.33
2018-02-23T08:22:37.063Z,13.73
2018-02-23T08:25:06.324Z,16.23
2018-02-23T08:27:35.566Z,21.03
2018-02-23T08:30:04.871Z,18.17
2018-02-23T08:32:34.105Z,16.90
2018-02-23T08:35:03.369Z,15.57
2018-02-23T08:37:32.626Z,15.17
2018-02-23T08:40:01.883Z,12.37
2018-02-23T08:42:31.145Z,14.07
2018-02-23T08:45:00.401Z,16.03
2018-02-23T08:47:29.979Z,14.80
2018-02-23T08:49:59.220Z,15.93
2018-02-23T08:52:28.488Z,19.87
2018-02-23T08:54:57.764Z,10.90
2018-02-23T08:57:27.034Z,19.10
2018-02-23T08:59:56.289Z,17.13
2018-02-23T09:02:25.572Z,13.97
2018-02-23T09:04:54.865Z,17.50
2018-02-23T09:07:24.102Z,19.47
2018-02-23T09:09:53.482Z,19.93
2018-02-23T09:12:22.964Z,17.80
2018-02-23T09:14:53.080Z,16.37
2018-02-23T09:17:22.498Z,11.40
2018-02-23T09:19:51.749Z,17.30
2018-02-23T09:22:21.026Z,17.20
2018-02-23T09:24:50.298Z,18.70
2018-02-23T09:27:19.634Z,26.77
2018-02-23T09:29:48.847Z,11.37
2018-02-23T09:35:18.724Z,23.50
2018-02-23T09:37:47.964Z,15.50
2018-02-23T09:40:17.229Z,17.13
2018-02-23T09:42:47.253Z,14.70
2018-02-23T09:45:16.517Z,18.30
2018-02-23T09:47:45.792Z,20.13
2018-02-23T09:50:15.085Z,24.43
2018-02-23T09:52:45.093Z,16.97
2018-02-23T09:55:14.353Z,11.27
2018-02-23T09:57:45.105Z,25.93
2018-02-23T10:00:14.370Z,19.60
2018-02-23T10:02:43.661Z,19.37
2018-02-23T10:05:13.708Z,18.37
2018-02-23T10:07:42.968Z,26.07
2018-02-23T10:10:12.211Z,17.20
2018-02-23T10:12:41.496Z,20.87
2018-02-23T10:15:10.726Z,19.27
2018-02-23T10:17:40.743Z,18.53
2018-02-23T10:20:10.038Z,20.07
2018-02-23T10:22:39.283Z,18.80
2018-02-23T10:25:08.541Z,16.97
2018-02-23T10:27:38.578Z,20.97
2018-02-23T10:30:07.853Z,19.43
2018-02-23T10:32:37.170Z,21.10
2018-02-23T10:35:06.383Z,16.13
2018-02-23T10:37:35.664Z,18.63
2018-02-23T10:40:05.691Z,13.63
2018-02-23T10:42:35.098Z,15.17
2018-02-23T10:45:05.321Z,16.60
2018-02-23T10:47:34.597Z,21.87
2018-02-23T10:50:03.870Z,14.60
2018-02-23T10:52:33.124Z,17.17
2018-02-23T10:55:03.140Z,16.13
2018-02-23T10:57:32.417Z,14.03
2018-02-23T11:00:01.665Z,24.37
2018-02-23T11:02:30.921Z,16.47
2018-02-23T11:05:00.165Z,15.83
2018-02-23T11:07:29.471Z,22.03
2018-02-23T11:09:58.775Z,15.23
2018-02-23T11:12:28.052Z,17.03
2018-02-23T11:14:57.314Z,14.60
2018-02-23T11:17:26.574Z,16.43
2018-02-23T11:19:55.947Z,20.47
2018-02-23T11:22:25.217Z,19.33
2018-02-23T11:24:54.523Z,23.50
2018-02-23T11:27:23.787Z,14.53
2018-02-23T11:29:53.079Z,25.23
2018-02-23T11:32:22.325Z,17.90
2018-02-23T11:34:51.604Z,16.30
2018-02-23T11:37:20.874Z,11.33
2018-02-23T11:39:50.137Z,16.53
2018-02-23T11:42:19.402Z,18.90
2018-02-23T11:44:48.664Z,19.80
2018-02-23T11:47:18.754Z,20.67
2018-02-23T11:49:48.014Z,15.30
2018-02-23T11:52:17.335Z,18.37
2018-02-23T11:54:46.686Z,21.00
2018-02-23T11:57:15.993Z,21.00
2018-02-23T11:59:45.425Z,16.07
2018-02-23T12:02:14.710Z,14.73
2018-02-23T12:04:44.040Z,15.73
2018-02-23T12:07:13.357Z,14.90
2018-02-23T12:09:42.640Z,15.33
2018-02-23T12:12:11.908Z,16.53
2018-02-23T12:14:41.205Z,25.27
2018-02-23T12:17:11.273Z,13.60
2018-02-23T12:19:40.510Z,20.17
2018-02-23T12:22:10.636Z,21.30
2018-02-23T12:24:40.670Z,20.10
2018-02-23T12:27:10.284Z,17.00
2018-02-23T12:29:40.269Z,15.87
2018-02-23T12:32:09.538Z,18.80
2018-02-23T12:34:38.788Z,20.93
2018-02-23T12:37:08.836Z,20.67
2018-02-23T12:39:38.066Z,20.40
2018-02-23T12:42:07.327Z,21.30
2018-02-23T12:44:36.594Z,20.67
2018-02-23T12:47:05.993Z,26.93
2018-02-23T12:49:35.259Z,18.40
2018-02-23T12:52:04.492Z,20.77
2018-02-23T12:54:33.735Z,21.27
2018-02-23T12:57:02.978Z,19.87
2018-02-23T12:59:32.239Z,21.80
2018-02-23T13:02:01.486Z,22.50
2018-02-23T13:04:30.785Z,17.90
2018-02-23T13:07:00.040Z,21.57
2018-02-23T13:09:29.321Z,21.83
2018-02-23T13:11:58.589Z,18.83
2018-02-23T13:14:33.362Z,18.47
2018-02-23T13:17:02.655Z,18.80
2018-02-23T13:19:31.913Z,24.00
2018-02-23T13:22:01.166Z,21.10
2018-02-23T13:24:30.508Z,20.37
2018-02-23T13:27:05.190Z,18.17
2018-02-23T13:29:34.429Z,22.00
2018-02-23T13:32:03.676Z,17.40
2018-02-23T13:34:33.089Z,23.73
2018-02-23T13:37:02.341Z,20.67
2018-02-23T13:39:31.597Z,27.90
2018-02-23T13:42:00.839Z,16.83
2018-02-23T13:44:30.092Z,27.30
2018-02-23T13:46:59.378Z,13.13
2018-02-23T13:49:28.686Z,20.03
2018-02-23T13:51:58.710Z,28.33
2018-02-23T13:54:27.982Z,17.23
2018-02-23T13:56:58.731Z,17.43
2018-02-23T13:59:27.989Z,20.80
2018-02-23T14:01:57.266Z,19.23
2018-02-23T14:04:26.523Z,21.97
2018-02-23T14:07:01.246Z,15.37
2018-02-23T14:09:30.866Z,23.40
2018-02-23T14:12:00.134Z,23.23
2018-02-23T14:14:29.401Z,22.63
2018-02-23T14:16:58.667Z,28.03
2018-02-23T14:19:28.010Z,27.93
2018-02-23T14:21:57.350Z,25.50
2018-02-23T14:24:26.589Z,16.93
2018-02-23T14:26:56.009Z,27.27
2018-02-23T14:29:25.279Z,26.93
2018-02-23T14:31:55.325Z,16.10
2018-02-23T14:34:24.597Z,15.60
2018-02-23T14:36:53.990Z,20.73
2018-02-23T14:39:23.255Z,19.67
2018-02-23T14:41:52.500Z,16.67
2018-02-23T14:44:21.749Z,21.47
2018-02-23T14:46:51.032Z,20.73
2018-02-23T14:49:20.282Z,26.53
2018-02-23T14:51:49.526Z,26.90
2018-02-23T14:54:18.786Z,17.23
2018-02-23T14:56:48.195Z,22.83
2018-02-23T14:59:17.466Z,18.30
2018-02-23T15:01:46.709Z,16.07
2018-02-23T15:04:15.980Z,22.30
2018-02-23T15:06:45.254Z,22.87
2018-02-23T15:09:14.510Z,22.80
2018-02-23T15:11:43.753Z,22.10
2018-02-23T15:14:13.039Z,27.87
2018-02-23T15:16:42.282Z,15.63
2018-02-23T15:19:11.545Z,21.83
2018-02-23T15:21:40.822Z,22.60
2018-02-23T15:24:10.903Z,17.87
2018-02-23T15:26:40.179Z,20.43
2018-02-23T15:29:09.462Z,15.83
2018-02-23T15:34:47.080Z,19.77
2018-02-23T15:37:16.340Z,24.83
2018-02-23T15:39:45.595Z,17.30
2018-02-23T15:42:14.942Z,20.70
2018-02-23T15:44:45.286Z,17.80
2018-02-23T15:47:14.528Z,15.37
2018-02-23T15:49:49.162Z,14.03
2018-02-23T15:52:18.425Z,24.10
2018-02-23T15:54:47.669Z,20.03
2018-02-23T15:57:19.192Z,17.30
2018-02-23T15:59:48.449Z,22.60
2018-02-23T16:02:17.698Z,19.93
2018-02-23T16:04:46.949Z,13.63
2018-02-23T16:07:16.190Z,17.70
2018-02-23T16:09:45.458Z,21.90
2018-02-23T16:12:14.721Z,17.83
2018-02-23T16:14:44.097Z,23.37
2018-02-23T16:17:13.414Z,22.50
2018-02-23T16:19:43.452Z,27.47
2018-02-23T16:22:12.712Z,21.77
2018-02-23T16:24:41.966Z,18.30
2018-02-23T16:27:11.424Z,19.33
2018-02-23T16:29:40.733Z,21.80
2018-02-23T16:32:11.000Z,27.03
2018-02-23T16:34:40.273Z,23.43
2018-02-23T16:37:09.558Z,18.73
2018-02-23T16:39:38.972Z,22.17
2018-02-23T16:42:08.222Z,25.83
2018-02-23T16:44:37.511Z,22.67
2018-02-23T16:47:06.762Z,19.97
2018-02-23T16:49:36.059Z,10.67
2018-02-23T16:52:05.289Z,17.30
2018-02-23T16:54:34.655Z,23.47
2018-02-23T16:57:03.929Z,15.73
2018-02-23T16:59:33.297Z,15.70
2018-02-23T17:02:02.601Z,20.77
2018-02-23T17:04:31.921Z,21.43
2018-02-23T17:07:01.243Z,16.13
2018-02-23T17:09:31.361Z,23.77
2018-02-23T17:12:00.630Z,24.07
2018-02-23T17:14:29.976Z,23.40
2018-02-23T17:16:59.256Z,19.63
2018-02-23T17:19:28.520Z,14.07
2018-02-23T17:21:57.744Z,14.50
2018-02-23T17:24:27.039Z,16.90
2018-02-23T17:26:56.287Z,19.20
2018-02-23T17:29:26.324Z,24.03
2018-02-23T17:31:55.588Z,14.13
2018-02-23T17:34:25.829Z,22.63
2018-02-23T17:36:55.098Z,16.07
2018-02-23T17:39:24.390Z,16.63
2018-02-23T17:41:53.613Z,22.00
2018-02-23T17:44:22.977Z,14.83
2018-02-23T17:46:52.166Z,24.73
2018-02-23T17:49:21.406Z,16.97
2018-02-23T17:51:50.704Z,17.17
2018-02-23T17:54:19.959Z,17.70
2018-02-23T17:56:49.303Z,15.07
2018-02-23T17:59:18.566Z,23.13
2018-02-23T18:01:48.043Z,15.93
2018-02-23T18:04:17.320Z,14.13
2018-02-23T18:06:46.557Z,12.50
2018-02-23T18:09:15.825Z,15.17
2018-02-23T18:11:45.885Z,17.20
2018-02-23T18:14:15.138Z,14.63
2018-02-23T18:16:44.497Z,12.83
2018-02-23T18:19:13.739Z,12.47
2018-02-23T18:21:43.789Z,16.17
2018-02-23T18:24:13.149Z,15.73
2018-02-23T18:26:42.561Z,18.73
2018-02-23T18:29:11.845Z,13.40
2018-02-23T18:31:41.098Z,22.67
2018-02-23T18:34:10.425Z,18.87
2018-02-23T18:36:39.717Z,16.70
2018-02-23T18:39:09.015Z,19.90
2018-02-23T18:41:38.311Z,13.90
2018-02-23T18:44:07.585Z,14.70
2018-02-23T18:46:36.951Z,14.83
2018-02-23T18:49:06.454Z,14.60
2018-02-23T18:51:36.003Z,30.90
2018-02-23T18:54:05.414Z,21.33
2018-02-23T18:56:34.728Z,19.90
2018-02-23T18:59:03.977Z,19.77
2018-02-23T19:01:33.273Z,22.53
2018-02-23T19:04:02.530Z,23.90
2018-02-23T19:06:31.798Z,25.67
2018-02-23T19:09:01.050Z,21.40
2018-02-23T19:11:30.325Z,22.67
2018-02-23T19:13:59.601Z,22.33
2018-02-23T19:16:28.841Z,19.43
2018-02-23T19:18:58.102Z,22.83
2018-02-23T19:21:27.498Z,23.00
2018-02-23T19:23:56.838Z,22.30
2018-02-23T19:26:26.860Z,16.43
2018-02-23T19:28:56.122Z,24.17
2018-02-23T19:31:25.419Z,25.83
2018-02-23T19:33:54.722Z,18.00
2018-02-23T19:36:24.023Z,21.70
2018-02-23T19:38:53.385Z,20.87
2018-02-23T19:41:22.658Z,26.30
2018-02-23T19:43:51.925Z,24.63
2018-02-23T19:46:21.217Z,19.47
2018-02-23T19:48:50.471Z,22.13
2018-02-23T19:51:19.739Z,19.43
2018-02-23T19:53:48.977Z,26.33
2018-02-23T19:56:18.217Z,29.50
2018-02-23T19:58:47.533Z,28.60
2018-02-23T20:01:16.862Z,22.30
2018-02-23T20:03:46.210Z,28.13
2018-02-23T20:06:15.490Z,23.23
2018-02-23T20:08:45.150Z,24.53
2018-02-23T20:11:15.615Z,23.27
2018-02-23T20:13:44.877Z,26.03
2018-02-23T20:16:14.230Z,22.63
2018-02-23T20:18:43.521Z,14.97
2018-02-23T20:21:12.785Z,24.93
2018-02-23T20:23:42.040Z,29.57
2018-02-23T20:26:11.982Z,22.63
2018-02-23T20:28:41.241Z,22.87
2018-02-23T20:31:10.550Z,23.57
2018-02-23T20:33:39.952Z,26.03
2018-02-23T20:36:09.942Z,30.00
2018-02-23T20:38:39.197Z,28.17
2018-02-23T20:41:08.477Z,25.63
2018-02-23T20:43:37.774Z,28.03
2018-02-23T20:46:07.291Z,27.50
2018-02-23T20:48:36.610Z,28.50
2018-02-23T20:51:06.208Z,17.83
2018-02-23T20:53:35.475Z,21.23
2018-02-23T20:56:04.750Z,20.03
2018-02-23T20:58:35.539Z,20.00
2018-02-23T21:01:04.825Z,19.37
2018-02-23T21:03:34.907Z,24.93
2018-02-23T21:06:04.186Z,23.90
2018-02-23T21:08:33.478Z,29.70
2018-02-23T21:11:02.730Z,15.87
2018-02-23T21:13:31.989Z,26.37
2018-02-23T21:16:01.271Z,14.63
2018-02-23T21:18:30.565Z,25.27
2018-02-23T21:20:59.831Z,26.57
2018-02-23T21:23:29.101Z,24.30
2018-02-23T21:25:58.501Z,29.77
2018-02-23T21:28:28.382Z,18.07
2018-02-23T21:30:57.654Z,22.97
2018-02-23T21:33:27.706Z,24.37
2018-02-23T21:35:57.023Z,16.70
2018-02-23T21:38:26.256Z,20.73
2018-02-23T21:40:55.549Z,37.03
2018-02-23T21:43:24.805Z,22.87
2018-02-23T21:45:54.088Z,31.33
2018-02-23T21:48:24.312Z,33.83
2018-02-23T21:50:53.585Z,29.03
2018-02-23T21:53:22.873Z,32.23
2018-02-23T21:55:52.774Z,26.83
2018-02-23T21:58:22.140Z,27.37
2018-02-23T22:00:51.456Z,19.87
2018-02-23T22:03:20.728Z,20.93
2018-02-23T22:05:49.983Z,25.30
2018-02-23T22:08:19.262Z,25.03
2018-02-23T22:10:48.735Z,25.83
2018-02-23T22:13:18.776Z,14.93
2018-02-23T22:15:48.030Z,33.20
2018-02-23T22:18:17.323Z,27.63
2018-02-23T22:20:46.579Z,29.30
2018-02-23T22:23:15.878Z,25.60
2018-02-23T22:25:45.234Z,23.90
2018-02-23T22:28:14.546Z,27.23
2018-02-23T22:30:44.181Z,33.43
2018-02-23T22:33:14.210Z,26.43
2018-02-23T22:35:43.502Z,23.80
2018-02-23T22:40:48.274Z,30.20
2018-02-23T22:43:17.554Z,19.77
2018-02-23T22:45:46.904Z,27.07
2018-02-23T22:48:16.207Z,22.57
2018-02-23T22:50:45.674Z,25.20
2018-02-23T22:53:14.955Z,29.13
2018-02-23T22:55:44.229Z,22.27
2018-02-23T22:58:13.530Z,28.60
2018-02-23T23:00:42.828Z,33.27
2018-02-23T23:03:12.121Z,29.00
2018-02-23T23:05:41.422Z,25.87
2018-02-23T23:08:12.434Z,28.20
2018-02-23T23:10:41.683Z,22.20
2018-02-23T23:13:10.962Z,27.10
2018-02-23T23:15:40.317Z,21.13
2018-02-23T23:18:09.580Z,24.30
2018-02-23T23:20:38.903Z,20.90
2018-02-23T23:23:08.222Z,25.03
2018-02-23T23:25:37.494Z,29.70
2018-02-23T23:28:06.745Z,20.43
2018-02-23T23:30:36.115Z,24.60
2018-02-23T23:33:05.399Z,21.70
2018-02-23T23:35:34.688Z,28.50
2018-02-23T23:38:04.070Z,26.30
2018-02-23T23:40:33.520Z,21.73
2018-02-23T23:43:02.973Z,28.20
2018-02-23T23:45:32.272Z,19.50
2018-02-23T23:48:01.625Z,10.57
2018-02-23T23:50:31.103Z,23.57
2018-02-23T23:53:01.858Z,23.37
2018-02-23T23:55:31.165Z,29.77
2018-02-23T23:58:00.421Z,21.87
